createdAt,value
2022-10-12T00:01:01.037Z,8.77
2022-10-12T00:03:28.265Z,8.75
2022-10-12T00:06:04.327Z,8.48
2022-10-12T00:08:31.449Z,7.75
2022-10-12T00:10:58.091Z,8.30
2022-10-12T00:13:24.800Z,8.38
2022-10-12T00:15:51.405Z,8.57
2022-10-12T00:18:18.003Z,7.95
2022-10-12T00:20:45.103Z,8.95
2022-10-12T00:23:11.770Z,9.13
2022-10-12T00:25:39.214Z,9.30
2022-10-12T00:28:06.244Z,9.10
2022-10-12T00:30:33.168Z,9.40
2022-10-12T00:32:59.793Z,9.85
2022-10-12T00:35:28.233Z,9.02
2022-10-12T00:37:55.013Z,10.65
2022-10-12T00:40:21.954Z,9.80
2022-10-12T00:42:49.230Z,10.75
2022-10-12T00:45:16.321Z,10.63
2022-10-12T00:47:53.848Z,10.27
2022-10-12T00:50:23.196Z,10.88
2022-10-12T00:52:55.984Z,12.00
2022-10-12T00:55:24.627Z,10.27
2022-10-12T00:57:52.412Z,11.50
2022-10-12T01:00:19.613Z,11.10
2022-10-12T01:02:47.885Z,11.65
2022-10-12T01:05:14.866Z,11.05
2022-10-12T01:07:41.588Z,11.27
2022-10-12T01:10:08.510Z,11.77
2022-10-12T01:12:35.793Z,12.32
2022-10-12T01:15:02.624Z,11.18
2022-10-12T01:17:47.995Z,13.02
2022-10-12T01:20:14.552Z,12.25
2022-10-12T01:23:04.529Z,11.60
2022-10-12T01:25:34.850Z,11.95
2022-10-12T01:28:16.800Z,11.60
2022-10-12T01:30:45.672Z,13.10
2022-10-12T01:33:12.265Z,10.77
2022-10-12T01:35:51.080Z,11.15
2022-10-12T01:38:23.690Z,12.05
2022-10-12T01:40:52.999Z,12.38
2022-10-12T01:43:23.603Z,11.15
2022-10-12T01:45:50.369Z,11.82
2022-10-12T01:48:17.326Z,12.10
2022-10-12T01:50:50.906Z,12.35
2022-10-12T01:53:20.513Z,12.05
2022-10-12T01:55:47.070Z,11.27
2022-10-12T01:58:21.808Z,12.75
2022-10-12T02:00:57.629Z,11.65
2022-10-12T02:03:30.366Z,12.82
2022-10-12T02:06:01.094Z,11.35
2022-10-12T02:08:30.786Z,12.20
2022-10-12T02:10:59.947Z,13.25
2022-10-12T02:13:29.333Z,11.20
2022-10-12T02:15:57.604Z,12.15
2022-10-12T02:18:24.584Z,12.48
2022-10-12T02:20:52.740Z,12.77
2022-10-12T02:23:21.833Z,12.38
2022-10-12T02:25:49.375Z,11.40
2022-10-12T02:28:18.539Z,12.30
2022-10-12T02:30:48.168Z,13.48
2022-10-12T02:33:17.261Z,13.13
2022-10-12T02:35:47.201Z,14.82
2022-10-12T02:38:16.246Z,13.15
2022-10-12T02:40:54.791Z,13.45
2022-10-12T02:43:39.699Z,14.73
2022-10-12T02:46:08.825Z,14.65
2022-10-12T02:48:36.166Z,15.05
2022-10-12T02:51:03.447Z,14.27
2022-10-12T02:53:30.545Z,13.50
2022-10-12T02:56:01.279Z,13.23
2022-10-12T02:58:27.897Z,13.38
2022-10-12T03:00:54.471Z,13.35
2022-10-12T03:03:21.097Z,13.40
2022-10-12T03:05:47.650Z,14.13
2022-10-12T03:08:14.543Z,13.52
2022-10-12T03:10:41.112Z,13.75
2022-10-12T03:13:07.779Z,13.50
2022-10-12T03:15:34.338Z,14.57
2022-10-12T03:18:01.006Z,14.82
2022-10-12T03:20:27.528Z,15.52
2022-10-12T03:22:54.158Z,14.65
2022-10-12T03:25:20.851Z,15.02
2022-10-12T03:27:47.422Z,14.95
2022-10-12T03:30:14.768Z,14.35
2022-10-12T03:32:41.338Z,12.88
2022-10-12T03:35:08.214Z,13.45
2022-10-12T03:37:35.028Z,13.45
2022-10-12T03:40:01.986Z,13.77
2022-10-12T03:42:28.590Z,15.55
2022-10-12T03:44:55.149Z,13.68
2022-10-12T03:47:21.721Z,16.27
2022-10-12T03:49:48.265Z,14.48
2022-10-12T03:52:14.891Z,15.00
2022-10-12T03:54:41.480Z,14.45
2022-10-12T03:57:08.141Z,14.80
2022-10-12T03:59:34.732Z,14.15
2022-10-12T04:02:01.355Z,14.07
2022-10-12T04:04:27.925Z,14.57
2022-10-12T04:06:54.464Z,16.85
2022-10-12T04:09:21.050Z,20.75
2022-10-12T04:11:47.576Z,18.27
2022-10-12T04:14:14.166Z,18.52
2022-10-12T04:16:40.728Z,19.00
2022-10-12T04:19:07.305Z,16.17
2022-10-12T04:21:34.254Z,17.02
2022-10-12T04:24:00.973Z,16.13
2022-10-12T04:26:27.644Z,15.80
2022-10-12T04:28:54.301Z,15.20
2022-10-12T04:31:21.286Z,17.08
2022-10-12T04:33:47.958Z,16.25
2022-10-12T04:36:14.597Z,15.85
2022-10-12T04:38:41.243Z,15.98
2022-10-12T04:41:07.871Z,16.50
2022-10-12T04:43:34.516Z,17.70
2022-10-12T04:46:01.116Z,15.07
2022-10-12T04:48:28.064Z,18.75
2022-10-12T04:50:54.636Z,19.33
2022-10-12T04:53:21.319Z,20.15
2022-10-12T04:55:47.975Z,19.92
2022-10-12T04:58:14.662Z,20.33
2022-10-12T05:00:41.275Z,21.00
2022-10-12T05:03:07.919Z,20.42
2022-10-12T05:05:36.026Z,21.20
2022-10-12T05:08:03.181Z,20.05
2022-10-12T05:10:29.741Z,21.65
2022-10-12T05:12:56.358Z,20.63
2022-10-12T05:15:23.077Z,19.50
2022-10-12T05:17:49.663Z,20.83
2022-10-12T05:20:16.340Z,20.95
2022-10-12T05:22:42.968Z,21.38
2022-10-12T05:25:09.759Z,21.50
2022-10-12T05:27:36.550Z,20.40
2022-10-12T05:30:04.300Z,21.05
2022-10-12T05:32:31.043Z,19.83
2022-10-12T05:34:57.714Z,21.17
2022-10-12T05:37:24.368Z,21.42
2022-10-12T05:39:52.018Z,22.15
2022-10-12T05:42:18.661Z,22.30
2022-10-12T05:44:45.283Z,19.92
2022-10-12T05:47:11.929Z,21.50
2022-10-12T05:49:38.504Z,22.05
2022-10-12T05:52:05.114Z,20.42
2022-10-12T05:54:31.681Z,20.77
2022-10-12T05:56:58.803Z,20.77
2022-10-12T05:59:25.382Z,20.48
2022-10-12T06:01:51.990Z,20.02
2022-10-12T06:04:18.658Z,20.00
2022-10-12T06:06:45.366Z,20.15
2022-10-12T06:09:12.826Z,19.35
2022-10-12T06:11:39.681Z,18.90
2022-10-12T06:14:06.294Z,19.67
2022-10-12T06:16:32.900Z,20.60
2022-10-12T06:18:59.614Z,17.80
2022-10-12T06:21:33.529Z,17.88
2022-10-12T06:24:01.147Z,17.75
2022-10-12T06:26:27.851Z,19.10
2022-10-12T06:28:54.488Z,17.95
2022-10-12T06:31:21.224Z,16.85
2022-10-12T06:33:50.163Z,17.45
2022-10-12T06:36:17.007Z,16.70
2022-10-12T06:38:43.631Z,16.52
2022-10-12T06:41:10.253Z,16.98
2022-10-12T06:43:36.895Z,17.40
2022-10-12T06:46:04.038Z,16.50
2022-10-12T06:48:30.756Z,15.95
2022-10-12T06:50:57.609Z,15.55
2022-10-12T06:53:25.536Z,15.73
2022-10-12T06:55:52.176Z,15.88
2022-10-12T06:58:18.724Z,15.57
2022-10-12T07:00:45.508Z,15.93
2022-10-12T07:03:13.523Z,15.07
2022-10-12T07:05:40.174Z,15.85
2022-10-12T07:08:06.814Z,15.65
2022-10-12T07:10:33.508Z,14.38
2022-10-12T07:13:00.098Z,13.85
2022-10-12T07:15:26.977Z,14.88
2022-10-12T07:17:53.575Z,15.10
2022-10-12T07:20:20.234Z,14.50
2022-10-12T07:22:47.029Z,15.30
2022-10-12T07:25:19.265Z,13.80
2022-10-12T07:27:49.143Z,13.45
2022-10-12T07:30:15.708Z,13.43
2022-10-12T07:32:44.476Z,14.88
2022-10-12T07:35:11.116Z,13.73
2022-10-12T07:37:37.886Z,12.75
2022-10-12T07:40:05.018Z,12.50
2022-10-12T07:42:31.616Z,11.68
2022-10-12T07:56:57.904Z,12.75
2022-10-12T07:59:25.000Z,11.85
2022-10-12T08:01:51.689Z,11.32
2022-10-12T08:04:18.317Z,11.30
2022-10-12T08:06:45.118Z,10.50
2022-10-12T08:09:11.756Z,11.02
2022-10-12T08:11:39.652Z,12.77
2022-10-12T08:14:06.612Z,16.17
2022-10-12T08:16:33.413Z,13.85
2022-10-12T08:19:00.330Z,14.50
2022-10-12T08:21:27.004Z,15.63
2022-10-12T08:23:53.600Z,13.95
2022-10-12T08:26:20.195Z,14.40
2022-10-12T08:28:46.922Z,14.77
2022-10-12T08:31:14.721Z,13.98
2022-10-12T08:33:43.499Z,15.18
2022-10-12T08:36:10.780Z,15.30
2022-10-12T08:38:40.337Z,14.18
2022-10-12T08:41:28.426Z,14.30
2022-10-12T08:44:01.004Z,14.52
2022-10-12T08:46:28.990Z,14.90
2022-10-12T08:49:01.759Z,13.55
2022-10-12T08:51:30.544Z,13.68
2022-10-12T08:54:12.980Z,13.63
2022-10-12T08:56:41.229Z,13.82
2022-10-12T08:59:18.932Z,14.80
2022-10-12T09:01:45.596Z,13.32
2022-10-12T09:04:12.281Z,14.32
2022-10-12T09:06:49.947Z,13.05
2022-10-12T09:09:37.987Z,13.43
2022-10-12T09:12:08.013Z,12.68
2022-10-12T09:14:37.044Z,12.90
2022-10-12T09:17:10.120Z,12.95
2022-10-12T09:19:39.504Z,12.75
2022-10-12T09:22:09.716Z,13.73
2022-10-12T09:24:37.015Z,13.02
2022-10-12T09:27:15.046Z,13.52
2022-10-12T09:29:45.191Z,13.18
2022-10-12T09:32:31.495Z,13.27
2022-10-12T09:34:59.120Z,13.52
2022-10-12T09:37:27.605Z,12.95
2022-10-12T09:39:57.474Z,13.70
2022-10-12T09:42:27.081Z,13.57
2022-10-12T09:45:09.425Z,13.73
2022-10-12T09:47:36.091Z,13.23
2022-10-12T09:50:04.663Z,13.57
2022-10-12T09:52:39.554Z,13.38
2022-10-12T09:55:07.951Z,11.85
2022-10-12T09:57:42.445Z,12.45
2022-10-12T10:00:27.469Z,12.23
2022-10-12T10:02:54.815Z,12.43
2022-10-12T10:05:29.150Z,12.18
2022-10-12T10:08:13.891Z,11.75
2022-10-12T10:11:09.657Z,12.68
2022-10-12T10:13:37.874Z,13.30
2022-10-12T10:16:10.874Z,12.30
2022-10-12T10:18:44.924Z,12.18
2022-10-12T10:21:13.111Z,12.02
2022-10-12T10:23:44.012Z,11.68
2022-10-12T10:26:14.743Z,12.32
2022-10-12T10:28:45.322Z,12.63
2022-10-12T10:31:16.384Z,12.13
2022-10-12T10:33:43.459Z,12.15
2022-10-12T10:36:13.124Z,12.30
2022-10-12T10:38:52.476Z,11.98
2022-10-12T10:41:19.962Z,12.27
2022-10-12T10:43:48.205Z,12.57
2022-10-12T10:46:15.857Z,12.73
2022-10-12T10:48:53.412Z,12.38
2022-10-12T10:51:20.131Z,12.38
2022-10-12T10:53:48.234Z,13.68
2022-10-12T10:56:23.980Z,12.13
2022-10-12T10:59:09.758Z,12.02
2022-10-12T11:01:40.162Z,11.20
2022-10-12T11:04:06.840Z,13.00
2022-10-12T11:06:40.580Z,11.68
2022-10-12T11:09:20.005Z,11.00
2022-10-12T11:11:51.327Z,10.48
2022-10-12T11:14:19.457Z,11.15
2022-10-12T11:16:46.052Z,11.07
2022-10-12T11:19:20.952Z,11.65
2022-10-12T11:21:51.394Z,11.25
2022-10-12T11:24:21.619Z,12.35
2022-10-12T11:26:57.374Z,10.77
2022-10-12T11:29:24.048Z,11.68
2022-10-12T11:31:55.843Z,11.50
2022-10-12T11:34:24.026Z,12.10
2022-10-12T11:37:17.751Z,12.38
2022-10-12T11:39:42.662Z,12.40
2022-10-12T11:42:28.383Z,12.85
2022-10-12T11:44:55.066Z,11.90
2022-10-12T11:47:30.849Z,13.00
2022-10-12T11:50:15.335Z,11.50
2022-10-12T11:52:45.122Z,10.82
2022-10-12T11:55:30.493Z,12.35
2022-10-12T11:57:59.814Z,10.98
2022-10-12T12:00:30.249Z,10.88
2022-10-12T12:03:04.085Z,12.93
2022-10-12T12:05:31.592Z,10.95
2022-10-12T12:07:58.206Z,12.35
2022-10-12T12:10:28.044Z,11.93
2022-10-12T12:13:23.171Z,11.10
2022-10-12T12:15:49.897Z,12.00
2022-10-12T12:18:18.662Z,10.98
2022-10-12T12:20:45.369Z,11.57
2022-10-12T12:23:21.461Z,11.63
2022-10-12T12:25:48.317Z,11.25
2022-10-12T12:28:20.106Z,11.35
2022-10-12T12:31:22.029Z,10.93
2022-10-12T12:33:50.124Z,11.45
2022-10-12T12:36:28.218Z,11.32
2022-10-12T12:38:54.871Z,10.45
2022-10-12T12:41:24.377Z,11.02
2022-10-12T12:43:58.400Z,11.35
2022-10-12T12:46:26.393Z,10.98
2022-10-12T12:48:53.044Z,11.10
2022-10-12T12:51:22.078Z,11.18
2022-10-12T12:53:50.737Z,10.80
2022-10-12T12:56:23.532Z,11.18
2022-10-12T12:59:08.782Z,11.13
2022-10-12T13:01:48.399Z,10.02
2022-10-12T13:04:24.612Z,10.40
2022-10-12T13:06:51.241Z,10.05
2022-10-12T13:09:40.429Z,10.48
2022-10-12T13:12:30.408Z,11.05
2022-10-12T13:15:03.257Z,10.32
2022-10-12T13:17:32.761Z,11.10
2022-10-12T13:20:01.361Z,10.13
2022-10-12T13:22:31.014Z,10.00
2022-10-12T13:25:11.191Z,9.70
2022-10-12T13:27:48.700Z,8.90
2022-10-12T13:30:30.155Z,8.70
2022-10-12T13:33:09.982Z,8.68
2022-10-12T13:35:39.793Z,9.27
2022-10-12T13:38:06.460Z,9.07
2022-10-12T13:40:40.592Z,9.25
2022-10-12T13:43:17.463Z,8.80
2022-10-12T13:45:44.888Z,8.63
2022-10-12T13:48:34.087Z,7.70
2022-10-12T13:51:20.446Z,7.40
2022-10-12T13:53:47.145Z,7.93
2022-10-12T13:56:19.340Z,8.18
2022-10-12T13:58:46.289Z,7.43
2022-10-12T14:01:13.335Z,7.80
2022-10-12T14:03:44.005Z,7.90
2022-10-12T14:06:30.331Z,7.30
2022-10-12T14:08:58.264Z,7.93
2022-10-12T14:11:26.346Z,6.75
2022-10-12T14:13:53.748Z,7.53
2022-10-12T14:16:20.431Z,7.68
2022-10-12T14:18:47.395Z,8.02
2022-10-12T14:21:24.990Z,8.60
2022-10-12T14:23:55.873Z,7.90
2022-10-12T14:26:24.784Z,8.60
2022-10-12T14:28:51.908Z,7.28
2022-10-12T14:31:18.791Z,6.72
2022-10-12T14:33:45.553Z,8.00
2022-10-12T14:36:25.596Z,8.23
2022-10-12T14:38:52.923Z,7.60
2022-10-12T14:41:28.454Z,7.43
2022-10-12T14:44:11.026Z,7.90
2022-10-12T14:46:42.764Z,7.50
2022-10-12T14:49:23.162Z,7.57
2022-10-12T14:51:50.638Z,7.68
2022-10-12T14:54:17.415Z,6.68
2022-10-12T14:56:44.113Z,6.80
2022-10-12T14:59:10.720Z,7.55
2022-10-12T15:01:41.744Z,7.78
2022-10-12T15:04:11.928Z,8.30
2022-10-12T15:06:41.847Z,7.20
2022-10-12T15:09:08.503Z,6.85
2022-10-12T15:11:35.146Z,5.80
2022-10-12T15:14:01.740Z,7.32
2022-10-12T15:16:28.842Z,6.65
2022-10-12T15:18:55.505Z,7.07
2022-10-12T15:21:22.184Z,7.28
2022-10-12T15:23:48.916Z,6.97
2022-10-12T15:26:17.269Z,7.57
2022-10-12T15:28:44.301Z,7.90
2022-10-12T15:31:18.072Z,7.55
2022-10-12T15:33:45.535Z,7.40
2022-10-12T15:36:12.112Z,6.80
2022-10-12T15:38:38.848Z,6.65
2022-10-12T15:41:05.922Z,6.70
2022-10-12T15:43:33.820Z,6.78
2022-10-12T15:46:02.499Z,7.43
2022-10-12T15:48:29.255Z,8.25
2022-10-12T15:50:56.053Z,7.40
2022-10-12T15:53:29.231Z,7.70
2022-10-12T15:55:55.921Z,8.20
2022-10-12T15:58:22.878Z,7.43
2022-10-12T16:00:49.529Z,6.80
2022-10-12T16:03:21.320Z,7.18
2022-10-12T16:05:51.081Z,7.07
2022-10-12T16:08:17.657Z,5.93
2022-10-12T16:10:45.594Z,6.70
2022-10-12T16:13:13.131Z,6.15
2022-10-12T16:15:40.453Z,5.97
2022-10-12T16:18:07.152Z,7.32
2022-10-12T16:20:36.697Z,7.00
2022-10-12T16:23:04.548Z,6.43
2022-10-12T16:25:31.202Z,6.55
2022-10-12T16:27:58.162Z,6.00
2022-10-12T16:30:25.400Z,6.43
2022-10-12T16:32:52.888Z,5.35
2022-10-12T16:35:19.504Z,5.95
2022-10-12T16:37:46.239Z,5.18
2022-10-12T16:40:13.449Z,6.43
2022-10-12T16:42:40.160Z,5.65
2022-10-12T16:45:07.124Z,5.40
2022-10-12T16:47:33.900Z,4.80
2022-10-12T16:50:01.748Z,5.10
2022-10-12T16:52:28.424Z,5.20
2022-10-12T16:54:55.332Z,5.70
2022-10-12T16:57:22.460Z,5.35
2022-10-12T16:59:49.265Z,4.65
2022-10-12T17:02:17.375Z,5.20
2022-10-12T17:04:44.659Z,5.45
2022-10-12T17:07:11.262Z,4.88
2022-10-12T17:09:37.955Z,6.93
2022-10-12T17:12:04.590Z,5.60
2022-10-12T17:14:31.282Z,6.38
2022-10-12T17:16:57.817Z,6.63
2022-10-12T17:19:25.649Z,6.32
2022-10-12T17:21:53.829Z,6.78
2022-10-12T17:24:21.707Z,6.85
2022-10-12T17:26:48.342Z,7.20
2022-10-12T17:29:16.262Z,6.88
2022-10-12T17:31:43.186Z,8.23
2022-10-12T17:34:15.683Z,8.05
2022-10-12T17:36:42.293Z,8.90
2022-10-12T17:39:08.929Z,8.77
2022-10-12T17:41:35.539Z,7.35
2022-10-12T17:44:02.229Z,8.07
2022-10-12T17:46:28.835Z,8.80
2022-10-12T17:48:56.141Z,8.73
2022-10-12T17:51:22.996Z,8.07
2022-10-12T17:53:49.654Z,8.32
2022-10-12T17:56:16.387Z,8.15
2022-10-12T17:58:43.096Z,9.68
2022-10-12T18:01:11.626Z,8.70
2022-10-12T18:03:40.591Z,9.10
2022-10-12T18:06:08.238Z,9.05
2022-10-12T18:08:34.962Z,9.73
2022-10-12T18:11:02.211Z,9.23
2022-10-12T18:13:29.535Z,8.77
2022-10-12T18:15:56.224Z,8.20
2022-10-12T18:18:22.867Z,8.00
2022-10-12T18:20:49.474Z,8.05
2022-10-12T18:23:16.400Z,8.13
2022-10-12T18:25:43.620Z,9.88
2022-10-12T18:28:10.988Z,8.20
2022-10-12T18:30:37.785Z,8.27
2022-10-12T18:33:04.656Z,7.28
2022-10-12T18:35:33.816Z,8.57
2022-10-12T18:38:00.455Z,7.93
2022-10-12T18:40:27.081Z,6.97
2022-10-12T18:42:53.691Z,6.55
2022-10-12T18:45:20.291Z,6.97
2022-10-12T18:47:47.548Z,7.05
2022-10-12T18:50:14.120Z,7.30
2022-10-12T18:52:40.719Z,7.68
2022-10-12T18:55:07.485Z,7.78
2022-10-12T18:57:39.040Z,7.32
2022-10-12T19:00:07.872Z,7.43
2022-10-12T19:02:35.599Z,6.63
2022-10-12T19:05:02.443Z,6.53
2022-10-12T19:07:29.275Z,7.15
2022-10-12T19:09:55.879Z,7.40
2022-10-12T19:12:22.691Z,7.25
2022-10-12T19:14:49.326Z,6.30
2022-10-12T19:17:16.227Z,6.55
2022-10-12T19:19:42.952Z,6.75
2022-10-12T19:22:09.534Z,7.88
2022-10-12T19:24:36.174Z,8.40
2022-10-12T19:27:04.045Z,8.70
2022-10-12T19:29:30.638Z,7.22
2022-10-12T19:31:57.242Z,7.78
2022-10-12T19:34:24.076Z,7.05
2022-10-12T19:36:50.767Z,7.13
2022-10-12T19:39:19.270Z,6.30
2022-10-12T19:41:45.974Z,5.65
2022-10-12T19:44:13.083Z,6.15
2022-10-12T19:46:40.673Z,5.80
2022-10-12T19:49:07.318Z,5.82
2022-10-12T19:51:33.927Z,6.20
2022-10-12T19:54:01.810Z,6.45
2022-10-12T19:56:28.710Z,6.43
2022-10-12T19:58:56.726Z,6.80
2022-10-12T20:01:24.805Z,6.70
2022-10-12T20:03:51.681Z,6.93
2022-10-12T20:06:18.711Z,6.30
2022-10-12T20:08:45.401Z,6.75
2022-10-12T20:11:17.675Z,6.00
2022-10-12T20:13:45.887Z,6.25
2022-10-12T20:16:12.652Z,7.20
2022-10-12T20:18:39.301Z,6.95
2022-10-12T20:21:06.903Z,6.40
2022-10-12T20:23:35.113Z,5.68
2022-10-12T20:26:04.932Z,6.32
2022-10-12T20:28:31.572Z,6.20
2022-10-12T20:31:00.500Z,6.18
2022-10-12T20:33:27.092Z,7.28
2022-10-12T20:35:53.698Z,6.88
2022-10-12T20:38:20.310Z,6.22
2022-10-12T20:40:46.997Z,6.30
2022-10-12T20:43:14.142Z,7.53
2022-10-12T20:45:40.771Z,7.25
2022-10-12T20:48:07.360Z,8.18
2022-10-12T20:50:34.256Z,8.85
2022-10-12T20:53:00.891Z,8.30
2022-10-12T20:55:27.560Z,8.13
2022-10-12T20:57:54.225Z,7.82
2022-10-12T21:00:20.921Z,8.60
2022-10-12T21:02:47.566Z,8.60
2022-10-12T21:05:14.232Z,9.18
2022-10-12T21:07:40.820Z,9.93
2022-10-12T21:10:08.377Z,9.48
2022-10-12T21:12:34.958Z,8.73
2022-10-12T21:15:01.542Z,9.27
2022-10-12T21:17:28.097Z,9.70
2022-10-12T21:19:54.696Z,9.68
2022-10-12T21:22:21.596Z,9.07
2022-10-12T21:24:48.248Z,8.73
2022-10-12T21:27:14.849Z,8.98
2022-10-12T21:29:41.369Z,8.77
2022-10-12T21:32:08.120Z,8.65
2022-10-12T21:34:34.723Z,8.40
2022-10-12T21:37:01.346Z,8.35
2022-10-12T21:39:27.962Z,8.55
2022-10-12T21:41:54.646Z,7.68
2022-10-12T21:44:21.246Z,7.90
2022-10-12T21:46:47.823Z,8.00
2022-10-12T21:49:14.440Z,9.73
2022-10-12T21:51:41.041Z,8.75
2022-10-12T21:54:07.719Z,9.30
2022-10-12T21:56:35.162Z,9.88
2022-10-12T21:59:02.658Z,8.95
2022-10-12T22:01:30.520Z,9.45
2022-10-12T22:03:58.271Z,8.85
2022-10-12T22:06:25.693Z,9.00
2022-10-12T22:08:56.341Z,9.82
2022-10-12T22:11:23.501Z,10.30
2022-10-12T22:13:50.264Z,10.05
2022-10-12T22:16:17.996Z,10.60
2022-10-12T22:18:44.883Z,11.13
2022-10-12T22:21:13.531Z,10.00
2022-10-12T22:23:41.488Z,11.88
2022-10-12T22:26:10.494Z,11.60
2022-10-12T22:28:37.283Z,10.13
2022-10-12T22:31:07.215Z,10.10
2022-10-12T22:33:34.543Z,9.35
2022-10-12T22:36:01.268Z,8.43
2022-10-12T22:38:28.301Z,9.35
2022-10-12T22:40:55.728Z,9.20
2022-10-12T22:43:22.313Z,10.35
2022-10-12T22:45:48.914Z,9.82
2022-10-12T22:48:15.733Z,11.90
2022-10-12T22:50:45.497Z,11.27
2022-10-12T22:53:13.833Z,11.80
2022-10-12T22:55:40.577Z,11.13
2022-10-12T22:58:07.188Z,10.98
2022-10-12T23:00:33.984Z,9.35
2022-10-12T23:03:00.621Z,8.90
2022-10-12T23:05:27.579Z,9.40
2022-10-12T23:07:54.342Z,9.02
2022-10-12T23:10:21.382Z,9.75
2022-10-12T23:12:48.106Z,9.18
2022-10-12T23:15:14.836Z,8.68
2022-10-12T23:17:41.978Z,9.93
2022-10-12T23:20:08.789Z,9.57
2022-10-12T23:22:35.437Z,9.32
2022-10-12T23:25:01.997Z,10.40
2022-10-12T23:27:29.035Z,10.85
2022-10-12T23:29:55.694Z,10.90
2022-10-12T23:32:22.306Z,9.95
2022-10-12T23:34:48.865Z,10.00
2022-10-12T23:37:15.408Z,9.27
2022-10-12T23:39:41.995Z,10.43
2022-10-12T23:42:10.213Z,9.85
2022-10-12T23:44:36.820Z,11.20
2022-10-12T23:47:03.410Z,10.73
2022-10-12T23:49:30.008Z,10.65
2022-10-12T23:52:00.777Z,9.20
2022-10-12T23:54:27.380Z,9.05
2022-10-12T23:56:54.085Z,9.65
2022-10-12T23:59:20.741Z,9.95
